Time;durP1;ratioP1;P1;durP2;ratioP2;P2;SDS_P1;SDS_P2;PMS_P1;PMS_P2;Temp;Humidity;BMP_temperature;BMP_pressure;BME280_temperature;BME280_humidity;BME280_pressure;Samples;Min_cycle;Max_cycle;Signal;HPM_P1;HPM_P2
2022/05/16 00:00:39;;;;;;;1.95;1.00;;;17.20;68.50;;;;;;4185151;28;20058;-74
2022/05/16 00:02:41;;;;;;;3.17;1.42;;;17.20;68.60;;;;;;4189533;28;20677;-74
2022/05/16 00:04:45;;;;;;;4.60;1.10;;;17.10;68.80;;;;;;4187193;28;20053;-74
2022/05/16 00:06:47;;;;;;;4.45;1.60;;;17.10;68.90;;;;;;4188224;28;20131;-74
2022/05/16 00:08:49;;;;;;;3.22;0.88;;;17.10;69.00;;;;;;4186526;28;20064;-74
2022/05/16 00:10:51;;;;;;;3.00;1.10;;;17.10;67.10;;;;;;4187270;28;20093;-74
2022/05/16 00:12:53;;;;;;;4.30;1.30;;;17.10;67.70;;;;;;4189258;28;20053;-73
2022/05/16 00:14:55;;;;;;;1.20;1.00;;;17.00;68.00;;;;;;4192279;28;20930;-74
2022/05/16 00:16:57;;;;;;;2.08;1.10;;;17.00;68.10;;;;;;4189464;28;20057;-74
2022/05/16 00:18:58;;;;;;;1.60;1.50;;;17.00;68.40;;;;;;4188913;28;20096;-74
2022/05/16 00:21:00;;;;;;;1.42;0.95;;;17.00;68.90;;;;;;4188026;28;20662;-73
2022/05/16 00:23:02;;;;;;;1.52;1.17;;;16.80;69.40;;;;;;4190876;28;20069;-74
2022/05/16 00:25:08;;;;;;;2.78;1.23;;;16.70;70.40;;;;;;4189173;28;20054;-74
2022/05/16 00:27:11;;;;;;;3.25;1.00;;;16.60;70.60;;;;;;4189849;28;20734;-74
2022/05/16 00:29:13;;;;;;;1.20;1.10;;;16.60;71.00;;;;;;4189223;28;20064;-73
2022/05/16 00:31:16;;;;;;;1.98;1.00;;;16.60;71.20;;;;;;4188286;28;20185;-74
2022/05/16 00:33:17;;;;;;;1.58;1.45;;;16.60;71.10;;;;;;4189105;28;20068;-73
2022/05/16 00:35:21;;;;;;;2.28;1.40;;;16.50;71.70;;;;;;4187211;28;20723;-73
2022/05/16 00:37:22;;;;;;;3.53;1.02;;;16.50;72.80;;;;;;4186559;28;20159;-73
2022/05/16 00:39:24;;;;;;;1.58;1.30;;;16.40;74.00;;;;;;4188680;28;20156;-74
2022/05/16 00:41:26;;;;;;;1.33;0.90;;;16.40;73.50;;;;;;4190595;28;20155;-74
2022/05/16 00:43:48;;;;;;;4.85;1.20;;;16.30;74.20;;;;;;4187072;28;20057;-73
2022/05/16 00:45:50;;;;;;;1.73;1.17;;;16.20;75.80;;;;;;4183930;28;20152;-74
2022/05/16 00:47:52;;;;;;;1.63;1.10;;;16.10;75.50;;;;;;4185202;28;20156;-73
2022/05/16 00:49:55;;;;;;;1.42;1.05;;;16.10;75.60;;;;;;4181983;28;20092;-74
2022/05/16 00:52:07;;;;;;;1.73;1.20;;;16.00;75.80;;;;;;4185054;28;20384;-74
2022/05/16 00:54:23;;;;;;;4.00;1.35;;;16.00;76.40;;;;;;4194014;28;20107;-73
2022/05/16 00:56:27;;;;;;;8.00;1.30;;;16.00;75.30;;;;;;4185682;28;20067;-74
2022/05/16 00:58:28;;;;;;;1.80;1.10;;;16.10;75.90;;;;;;4180994;28;20068;-73
2022/05/16 01:00:35;;;;;;;2.15;1.20;;;16.10;74.30;;;;;;4187307;28;20676;-73
2022/05/16 01:05:01;;;;;;;2.03;1.25;;;16.00;75.70;;;;;;4182868;28;20060;-73
2022/05/16 01:07:04;;;;;;;1.40;1.25;;;16.00;76.20;;;;;;4191539;28;20083;-73
2022/05/16 01:09:06;;;;;;;6.93;2.20;;;16.00;76.80;;;;;;4182934;28;20072;-73
2022/05/16 01:11:11;;;;;;;2.90;1.20;;;15.90;77.60;;;;;;4180850;28;20773;-74
2022/05/16 01:13:13;;;;;;;1.27;1.05;;;15.90;78.20;;;;;;4184356;28;20053;-74
2022/05/16 01:15:36;;;;;;;1.40;1.23;;;15.80;78.70;;;;;;4184185;28;20665;-74
2022/05/16 01:17:38;;;;;;;2.05;1.38;;;15.70;79.00;;;;;;4182611;28;20127;-73
2022/05/16 01:19:40;;;;;;;2.20;1.50;;;15.70;80.20;;;;;;4184141;28;20700;-73
2022/05/16 01:21:42;;;;;;;4.22;2.15;;;15.60;80.50;;;;;;4184788;28;20052;-74
2022/05/16 01:23:47;;;;;;;14.85;8.80;;;15.50;80.40;;;;;;4184955;28;20825;-74
2022/05/16 01:25:50;;;;;;;10.45;6.10;;;15.50;80.90;;;;;;4185876;28;20061;-74
2022/05/16 01:27:55;;;;;;;15.88;10.60;;;15.60;80.60;;;;;;4183760;28;20060;-74
2022/05/16 01:29:57;;;;;;;6.32;4.88;;;15.60;80.90;;;;;;4151943;28;1060713;-73
2022/05/16 01:31:58;;;;;;;6.10;3.88;;;15.50;80.50;;;;;;4189316;28;20473;-74
2022/05/16 01:34:00;;;;;;;5.95;3.38;;;15.40;81.00;;;;;;4189596;28;20067;-73
2022/05/16 01:36:03;;;;;;;5.63;5.07;;;15.30;81.90;;;;;;4189310;28;20061;-74
2022/05/16 01:38:22;;;;;;;10.68;7.65;;;15.20;82.30;;;;;;4189019;28;20057;-74
2022/05/16 01:40:23;;;;;;;7.43;5.32;;;15.20;83.30;;;;;;4189225;28;20061;-73
2022/05/16 01:42:25;;;;;;;4.07;3.45;;;15.30;83.20;;;;;;4187511;28;20690;-73
2022/05/16 01:44:27;;;;;;;2.90;2.53;;;15.30;82.60;;;;;;4188902;28;20057;-74
2022/05/16 01:46:32;;;;;;;4.75;2.83;;;15.30;82.40;;;;;;4186874;28;20045;-74
2022/05/16 01:48:35;;;;;;;3.20;2.28;;;15.30;82.70;;;;;;4187628;28;20061;-74
2022/05/16 01:50:37;;;;;;;3.13;2.80;;;15.30;82.50;;;;;;4187701;28;20567;-74
2022/05/16 01:52:39;;;;;;;2.30;2.10;;;15.20;83.00;;;;;;4188368;28;20152;-72
2022/05/16 01:54:41;;;;;;;3.45;1.48;;;15.10;83.10;;;;;;4186977;28;20148;-72
2022/05/16 01:56:44;;;;;;;1.50;1.40;;;15.10;83.40;;;;;;4189777;28;20661;-72
2022/05/16 01:58:45;;;;;;;4.47;1.60;;;15.10;83.30;;;;;;4191356;28;20104;-72
2022/05/16 02:00:47;;;;;;;1.80;1.70;;;15.00;84.00;;;;;;4186966;28;20057;-72
2022/05/16 02:02:49;;;;;;;16.90;2.53;;;14.90;83.90;;;;;;4185604;28;20107;-72
2022/05/16 02:04:51;;;;;;;1.50;1.25;;;14.90;84.90;;;;;;4188056;28;20064;-72
2022/05/16 02:06:53;;;;;;;1.00;1.00;;;14.80;83.80;;;;;;4186366;28;20619;-72
2022/05/16 02:08:55;;;;;;;3.00;1.65;;;14.70;83.20;;;;;;4188214;28;20056;-72
2022/05/16 02:10:57;;;;;;;2.20;1.50;;;14.80;82.80;;;;;;4184831;28;20059;-72
2022/05/16 02:12:59;;;;;;;1.48;1.33;;;14.80;82.40;;;;;;4182996;28;20056;-72
2022/05/16 02:15:03;;;;;;;3.95;1.38;;;14.80;82.80;;;;;;4182397;28;20186;-72
2022/05/16 02:17:04;;;;;;;1.77;1.33;;;14.70;82.80;;;;;;4181319;28;20163;-72
2022/05/16 02:19:06;;;;;;;7.28;4.57;;;14.70;84.20;;;;;;4180420;28;20064;-72
2022/05/16 02:25:49;;;;;;;10.73;5.00;;;14.80;84.40;;;;;;4189452;28;20848;-72
2022/05/16 02:27:51;;;;;;;7.15;5.57;;;14.90;84.10;;;;;;4183522;28;20057;-72
2022/05/16 02:29:53;;;;;;;4.72;3.28;;;14.80;84.30;;;;;;4189390;28;20185;-72
2022/05/16 02:31:55;;;;;;;3.55;2.25;;;14.90;83.00;;;;;;4182011;28;20943;-72
2022/05/16 02:33:57;;;;;;;2.50;2.30;;;14.90;82.50;;;;;;4184697;28;20176;-72
2022/05/16 02:35:58;;;;;;;2.45;2.25;;;14.90;83.90;;;;;;4184544;28;20388;-72
2022/05/16 02:38:01;;;;;;;5.57;3.00;;;15.00;83.90;;;;;;4183786;28;20063;-72
2022/05/16 02:40:04;;;;;;;2.72;2.08;;;14.90;83.90;;;;;;4190674;28;20092;-72
2022/05/16 02:42:06;;;;;;;4.20;1.92;;;15.00;83.90;;;;;;4188153;28;20887;-72
2022/05/16 02:44:07;;;;;;;2.83;1.90;;;15.00;82.60;;;;;;4184794;28;20061;-74
2022/05/16 02:46:09;;;;;;;3.88;2.17;;;15.00;82.20;;;;;;4185124;28;20065;-72
2022/05/16 02:48:11;;;;;;;3.22;1.75;;;15.00;83.10;;;;;;4188982;28;20048;-72
2022/05/16 02:50:13;;;;;;;10.43;2.38;;;15.10;82.60;;;;;;4187594;28;20184;-72
2022/05/16 02:52:15;;;;;;;2.75;1.63;;;15.10;82.10;;;;;;4188089;28;20068;-72
2022/05/16 02:54:19;;;;;;;3.33;1.90;;;15.10;82.10;;;;;;4189272;28;20130;-72
2022/05/16 02:56:20;;;;;;;1.70;1.58;;;15.10;81.20;;;;;;4187533;28;20061;-72
2022/05/16 02:58:22;;;;;;;4.30;1.60;;;15.30;81.20;;;;;;4187648;28;20807;-72
2022/05/16 03:00:24;;;;;;;4.10;1.70;;;15.30;80.50;;;;;;4187837;28;20155;-72
2022/05/16 03:02:26;;;;;;;2.67;1.58;;;15.40;80.50;;;;;;4186264;28;20065;-72
2022/05/16 03:04:28;;;;;;;2.42;1.50;;;15.40;81.30;;;;;;4190591;28;20057;-73
2022/05/16 03:06:29;;;;;;;5.80;1.23;;;15.40;80.60;;;;;;4190009;28;20789;-73
2022/05/16 03:08:31;;;;;;;2.58;1.40;;;15.40;80.70;;;;;;4191849;28;20148;-72
2022/05/16 03:10:33;;;;;;;2.65;1.60;;;15.50;80.20;;;;;;4188912;28;20211;-73
2022/05/16 03:12:35;;;;;;;5.25;1.30;;;15.60;79.50;;;;;;4187056;28;20053;-73
2022/05/16 03:14:36;;;;;;;2.00;1.48;;;15.60;79.20;;;;;;4187753;28;20061;-73
2022/05/16 03:16:38;;;;;;;1.83;1.23;;;15.80;78.50;;;;;;4187891;28;20184;-73
2022/05/16 03:18:40;;;;;;;1.50;1.40;;;15.80;77.60;;;;;;4187205;28;20051;-74
2022/05/16 03:20:42;;;;;;;1.48;0.98;;;15.80;77.80;;;;;;4187546;28;20679;-73
2022/05/16 03:22:43;;;;;;;2.05;1.30;;;15.90;77.60;;;;;;4185926;28;20064;-73
2022/05/16 03:24:45;;;;;;;1.90;1.40;;;15.90;77.80;;;;;;4184500;28;20073;-72
2022/05/16 03:26:47;;;;;;;3.13;1.30;;;15.90;78.20;;;;;;4183550;28;20072;-72
2022/05/16 03:28:49;;;;;;;3.40;1.20;;;16.00;78.40;;;;;;4165005;28;20160;-73
2022/05/16 03:30:51;;;;;;;4.15;1.80;;;16.00;78.40;;;;;;4183585;28;20063;-73
2022/05/16 03:32:52;;;;;;;1.63;1.40;;;15.90;78.60;;;;;;4183998;28;20126;-72
2022/05/16 03:34:54;;;;;;;4.97;1.30;;;15.90;78.30;;;;;;4184618;28;20061;-73
2022/05/16 03:36:56;;;;;;;1.25;0.90;;;16.00;77.90;;;;;;4189417;28;20868;-72
2022/05/16 03:41:18;;;;;;;1.73;1.42;;;15.90;77.90;;;;;;4194178;28;20057;-72
2022/05/16 03:43:20;;;;;;;2.63;1.40;;;15.90;78.30;;;;;;4193229;28;20060;-72
2022/05/16 03:45:22;;;;;;;2.50;1.63;;;15.80;78.40;;;;;;4188250;28;20063;-73
2022/05/16 03:47:24;;;;;;;1.65;1.40;;;15.80;79.30;;;;;;4193474;28;20049;-72
2022/05/16 03:49:26;;;;;;;2.08;1.25;;;15.70;79.60;;;;;;4194596;28;20056;-72
2022/05/16 03:51:27;;;;;;;3.83;1.67;;;15.80;78.40;;;;;;4192558;28;20072;-72
2022/05/16 03:53:29;;;;;;;3.15;1.77;;;15.90;78.70;;;;;;4194375;28;20663;-72
2022/05/16 03:55:31;;;;;;;3.95;1.52;;;15.90;79.20;;;;;;4192706;28;20067;-72
2022/05/16 03:57:33;;;;;;;4.32;1.42;;;15.90;78.80;;;;;;4195890;28;20999;-72
2022/05/16 03:59:35;;;;;;;3.22;1.42;;;15.90;78.90;;;;;;4193922;28;20761;-72
2022/05/16 04:01:37;;;;;;;2.65;1.20;;;16.00;79.30;;;;;;4195828;28;20057;-72
2022/05/16 04:03:45;;;;;;;4.28;1.95;;;16.00;79.30;;;;;;4196016;28;20053;-72
2022/05/16 04:05:46;;;;;;;2.03;1.30;;;16.00;79.60;;;;;;4194325;28;20053;-72
2022/05/16 04:07:49;;;;;;;2.35;1.33;;;16.10;79.50;;;;;;4193311;28;20099;-72
2022/05/16 04:09:51;;;;;;;2.97;1.45;;;16.10;78.90;;;;;;4195366;28;20092;-72
2022/05/16 04:11:52;;;;;;;2.10;1.40;;;16.10;78.40;;;;;;4192902;28;20812;-72
2022/05/16 04:13:54;;;;;;;2.15;1.35;;;16.20;77.90;;;;;;4191503;28;20907;-72
2022/05/16 04:15:56;;;;;;;5.63;1.35;;;16.30;77.60;;;;;;4190619;28;20064;-72
2022/05/16 04:17:58;;;;;;;1.20;1.00;;;16.30;78.20;;;;;;4190148;28;20096;-72
2022/05/16 04:20:00;;;;;;;3.53;1.30;;;16.30;78.30;;;;;;4189335;28;20196;-72
2022/05/16 04:22:02;;;;;;;1.98;1.45;;;16.40;78.80;;;;;;4191113;28;20148;-72
2022/05/16 04:24:05;;;;;;;5.80;1.50;;;16.40;80.10;;;;;;4188237;28;20058;-72
2022/05/16 04:26:07;;;;;;;2.05;1.50;;;16.40;80.10;;;;;;4188638;28;20151;-72
2022/05/16 04:28:10;;;;;;;1.75;1.52;;;16.40;81.30;;;;;;4190535;28;20750;-72
2022/05/16 04:30:12;;;;;;;3.00;1.92;;;16.40;81.30;;;;;;4187890;28;20062;-72
2022/05/16 04:32:14;;;;;;;3.75;1.52;;;16.30;82.10;;;;;;4185700;28;20064;-72
2022/05/16 04:34:16;;;;;;;2.05;1.85;;;16.20;83.50;;;;;;4189270;28;20061;-72
2022/05/16 04:36:17;;;;;;;2.35;1.52;;;16.10;83.40;;;;;;4191113;28;20063;-72
2022/05/16 04:38:20;;;;;;;1.90;1.80;;;16.20;83.80;;;;;;4191954;28;20054;-72
2022/05/16 04:40:22;;;;;;;5.43;1.77;;;16.20;83.30;;;;;;4183488;28;20061;-72
2022/05/16 04:42:41;;;;;;;3.08;1.80;;;16.30;82.90;;;;;;4184542;28;20147;-74
2022/05/16 04:44:43;;;;;;;2.80;2.05;;;16.40;83.30;;;;;;4186262;28;20061;-72
2022/05/16 04:46:45;;;;;;;4.53;1.70;;;16.40;83.70;;;;;;4177043;28;20781;-72
2022/05/16 04:48:47;;;;;;;5.20;3.00;;;16.40;84.00;;;;;;4183316;28;20853;-72
2022/05/16 04:50:49;;;;;;;2.65;1.67;;;16.30;84.50;;;;;;4185539;28;20057;-72
2022/05/16 04:52:51;;;;;;;2.63;1.70;;;16.20;84.80;;;;;;4184942;28;20073;-72
2022/05/16 04:54:54;;;;;;;1.80;1.70;;;16.10;86.00;;;;;;4184488;28;20152;-72
2022/05/16 04:56:56;;;;;;;1.58;1.48;;;16.10;87.00;;;;;;4185367;28;20092;-73
2022/05/16 04:58:57;;;;;;;3.63;1.95;;;16.10;87.30;;;;;;4184534;28;20053;-72
2022/05/16 05:01:01;;;;;;;1.60;1.50;;;16.20;87.40;;;;;;4185412;28;20843;-72
2022/05/16 05:03:03;;;;;;;2.05;1.65;;;16.20;87.30;;;;;;4191836;28;20060;-72
2022/05/16 05:05:06;;;;;;;1.85;1.60;;;16.20;87.80;;;;;;4185047;28;20061;-72
2022/05/16 05:07:07;;;;;;;3.67;1.73;;;16.30;88.00;;;;;;4194452;28;20147;-71
2022/05/16 05:09:09;;;;;;;3.38;2.13;;;16.30;88.10;;;;;;4191151;28;20058;-72
2022/05/16 05:16:02;;;;;;;3.22;2.33;;;16.20;88.80;;;;;;4187482;28;20111;-72
2022/05/16 05:18:04;;;;;;;2.28;1.85;;;16.20;89.20;;;;;;4189804;28;20064;-72
2022/05/16 05:20:13;;;;;;;2.65;2.00;;;16.30;89.00;;;;;;4190171;28;20079;-73
2022/05/16 05:22:14;;;;;;;3.88;2.05;;;16.30;89.10;;;;;;4190154;28;20128;-72
2022/05/16 05:24:16;;;;;;;4.78;2.00;;;16.30;90.00;;;;;;4190731;28;20056;-72
2022/05/16 05:26:18;;;;;;;2.72;1.98;;;16.30;90.30;;;;;;4189570;28;20056;-72
2022/05/16 05:28:20;;;;;;;2.65;2.20;;;16.30;90.30;;;;;;4189943;28;20681;-71
2022/05/16 05:30:25;;;;;;;4.28;1.75;;;16.30;90.20;;;;;;4187461;28;20179;-74
2022/05/16 05:32:27;;;;;;;3.13;1.98;;;16.40;90.40;;;;;;4190050;28;20060;-74
2022/05/16 05:34:28;;;;;;;3.45;2.28;;;16.40;90.50;;;;;;4172548;28;20094;-74
2022/05/16 05:36:31;;;;;;;4.03;2.40;;;16.30;90.70;;;;;;4191921;28;20180;-74
2022/05/16 05:38:32;;;;;;;4.55;2.55;;;16.30;91.00;;;;;;4190124;28;20152;-73
2022/05/16 05:40:34;;;;;;;2.47;2.00;;;16.20;91.10;;;;;;4188603;28;20065;-74
2022/05/16 05:42:37;;;;;;;7.28;1.90;;;16.30;90.90;;;;;;4189898;28;20045;-74
2022/05/16 05:44:39;;;;;;;3.85;1.95;;;16.30;90.90;;;;;;4194217;28;20061;-73
2022/05/16 05:46:41;;;;;;;5.97;2.20;;;16.40;90.90;;;;;;4193201;28;20061;-74
2022/05/16 05:48:43;;;;;;;3.75;2.10;;;16.50;90.90;;;;;;4193368;28;20057;-74
2022/05/16 05:50:44;;;;;;;2.85;2.05;;;16.50;90.90;;;;;;4191153;28;20056;-74
2022/05/16 05:52:46;;;;;;;9.02;2.30;;;16.50;90.70;;;;;;4192489;28;20058;-74
2022/05/16 05:54:49;;;;;;;3.00;1.88;;;16.60;90.30;;;;;;4192430;28;20063;-74
2022/05/16 05:56:50;;;;;;;4.13;2.38;;;16.60;90.60;;;;;;4193053;28;20061;-74
2022/05/16 05:58:52;;;;;;;1.98;1.80;;;16.70;90.60;;;;;;4192410;28;20804;-74
2022/05/16 06:00:54;;;;;;;2.22;2.03;;;16.70;90.80;;;;;;4192059;28;20053;-72
2022/05/16 06:02:56;;;;;;;2.95;1.98;;;16.80;90.50;;;;;;4193652;28;20871;-74
2022/05/16 06:04:58;;;;;;;2.17;1.98;;;16.90;89.50;;;;;;4190705;28;20057;-74
2022/05/16 06:07:00;;;;;;;2.85;1.98;;;17.10;88.00;;;;;;4188199;28;20064;-74
2022/05/16 06:09:02;;;;;;;2.33;2.13;;;17.20;86.90;;;;;;4189820;28;20057;-74
2022/05/16 06:11:04;;;;;;;3.00;1.90;;;17.40;86.10;;;;;;4186333;28;20053;-73
2022/05/16 06:13:06;;;;;;;1.58;1.48;;;17.50;85.10;;;;;;4192964;28;20853;-74
2022/05/16 06:15:09;;;;;;;6.70;2.58;;;17.60;84.20;;;;;;4192574;28;20057;-73
2022/05/16 06:17:12;;;;;;;2.88;2.33;;;17.70;83.80;;;;;;4190864;28;20053;-74
2022/05/16 06:19:14;;;;;;;3.35;2.05;;;17.80;83.60;;;;;;4190894;28;20053;-73
2022/05/16 06:21:15;;;;;;;2.67;1.90;;;17.80;83.30;;;;;;4193478;28;20761;-75
2022/05/16 06:23:17;;;;;;;1.73;1.58;;;17.80;83.30;;;;;;4192015;28;20057;-75
2022/05/16 06:25:33;;;;;;;2.40;2.15;;;17.80;83.20;;;;;;4190440;28;20053;-75
2022/05/16 06:27:35;;;;;;;2.40;1.92;;;17.90;83.10;;;;;;4192127;28;20126;-75
2022/05/16 06:29:37;;;;;;;3.83;2.08;;;18.00;82.90;;;;;;4192804;28;20065;-75
2022/05/16 06:31:38;;;;;;;1.95;1.83;;;18.30;82.10;;;;;;4193277;28;20895;-75
2022/05/16 06:33:40;;;;;;;3.45;2.25;;;18.60;81.30;;;;;;4193698;28;20067;-75
2022/05/16 06:35:42;;;;;;;3.30;2.33;;;18.70;80.60;;;;;;4188215;28;20922;-74
2022/05/16 06:37:51;;;;;;;2.45;2.13;;;18.80;80.90;;;;;;4187755;28;20057;-76
2022/05/16 06:39:53;;;;;;;2.88;2.33;;;18.80;80.70;;;;;;4192030;28;20096;-75
2022/05/16 06:41:54;;;;;;;3.72;2.00;;;18.80;80.50;;;;;;4191129;28;20059;-75
2022/05/16 06:43:56;;;;;;;3.63;3.17;;;18.90;80.90;;;;;;4185233;28;20758;-74
2022/05/16 06:45:58;;;;;;;3.80;2.88;;;19.00;80.70;;;;;;4190700;28;20084;-75
2022/05/16 06:48:01;;;;;;;3.08;2.08;;;19.10;79.80;;;;;;4196684;28;20061;-75
2022/05/16 06:50:04;;;;;;;2.60;2.40;;;19.40;78.50;;;;;;4190858;28;20126;-75
2022/05/16 06:52:06;;;;;;;3.38;3.00;;;19.60;78.60;;;;;;4192396;28;20099;-73
2022/05/16 06:54:11;;;;;;;4.18;3.55;;;19.80;78.20;;;;;;4191302;28;20065;-73
2022/05/16 06:56:13;;;;;;;6.10;3.10;;;19.90;77.20;;;;;;4197394;28;20092;-75
2022/05/16 06:58:15;;;;;;;3.10;2.65;;;20.10;76.80;;;;;;4193237;28;20053;-74
2022/05/16 07:00:18;;;;;;;2.33;2.13;;;20.30;75.90;;;;;;4193023;28;20068;-74
2022/05/16 07:02:20;;;;;;;2.97;2.17;;;20.50;75.60;;;;;;4188709;28;20061;-74
2022/05/16 07:04:21;;;;;;;2.13;1.77;;;20.60;75.10;;;;;;4192765;28;20057;-74
2022/05/16 07:06:23;;;;;;;3.00;2.00;;;20.60;75.40;;;;;;4187678;28;20160;-74
2022/05/16 07:08:25;;;;;;;2.42;1.75;;;20.70;74.70;;;;;;4186078;28;20792;-74
2022/05/16 07:10:27;;;;;;;3.42;2.40;;;20.80;74.80;;;;;;4185070;28;20096;-74
2022/05/16 07:12:29;;;;;;;3.60;3.22;;;21.00;73.50;;;;;;4188341;28;20048;-73
2022/05/16 07:14:31;;;;;;;2.40;2.03;;;21.30;73.50;;;;;;4187948;28;20061;-74
2022/05/16 07:16:32;;;;;;;2.08;1.80;;;21.50;72.00;;;;;;4195846;28;20063;-74
2022/05/16 07:18:34;;;;;;;2.50;1.88;;;21.80;71.80;;;;;;4189137;28;20049;-74
2022/05/16 07:20:37;;;;;;;2.50;2.00;;;22.20;71.40;;;;;;4165628;28;20058;-74
2022/05/16 07:22:48;;;;;;;2.88;2.05;;;22.30;69.60;;;;;;4185839;28;20123;-74
2022/05/16 07:24:52;;;;;;;3.33;2.10;;;22.40;68.30;;;;;;4185797;28;20784;-73
2022/05/16 07:29:14;;;;;;;4.38;3.10;;;22.40;69.60;;;;;;4185012;28;20041;-73
2022/05/16 07:31:15;;;;;;;3.67;3.38;;;22.20;72.00;;;;;;4186107;28;20093;-73
2022/05/16 07:33:18;;;;;;;4.28;2.40;;;22.10;71.60;;;;;;4185755;28;20053;-73
2022/05/16 07:35:23;;;;;;;2.60;2.40;;;21.90;72.00;;;;;;4192909;28;20100;-73
2022/05/16 07:37:25;;;;;;;2.20;2.00;;;21.70;72.10;;;;;;4187646;28;20049;-72
2022/05/16 07:39:27;;;;;;;4.38;2.70;;;21.50;72.50;;;;;;4191595;28;20057;-72
2022/05/16 07:41:31;;;;;;;3.13;2.80;;;21.40;72.40;;;;;;4187605;28;20808;-74
2022/05/16 07:43:33;;;;;;;5.25;3.47;;;21.40;73.50;;;;;;4187627;28;20891;-73
2022/05/16 07:45:35;;;;;;;3.58;2.80;;;21.40;73.30;;;;;;4187258;28;20067;-74
2022/05/16 07:47:37;;;;;;;4.00;2.60;;;21.40;73.20;;;;;;4189680;28;20063;-73
2022/05/16 07:49:38;;;;;;;2.90;2.67;;;21.40;73.70;;;;;;4188638;28;20053;-73
2022/05/16 07:51:41;;;;;;;2.95;2.08;;;21.40;74.30;;;;;;4170783;28;20058;-72
2022/05/16 07:53:42;;;;;;;4.10;3.17;;;21.40;73.90;;;;;;4192428;28;20153;-73
2022/05/16 07:55:49;;;;;;;4.60;3.67;;;21.30;74.10;;;;;;4189512;28;20058;-73
2022/05/16 07:57:50;;;;;;;3.75;3.45;;;21.30;73.60;;;;;;4190384;28;20095;-73
2022/05/16 07:59:52;;;;;;;3.17;2.95;;;21.30;73.70;;;;;;4190362;28;20103;-73
2022/05/16 08:01:54;;;;;;;2.72;2.53;;;21.30;74.70;;;;;;4191128;28;20057;-72
2022/05/16 08:03:56;;;;;;;2.50;2.30;;;21.30;75.10;;;;;;4190717;28;20772;-74
2022/05/16 08:05:58;;;;;;;10.60;2.60;;;21.30;73.50;;;;;;4191353;28;20096;-73
2022/05/16 08:10:29;;;;;;;2.80;2.60;;;21.30;73.10;;;;;;4189959;28;20859;-73
2022/05/16 08:12:35;;;;;;;4.68;2.15;;;21.20;73.30;;;;;;4187579;28;20926;-73
2022/05/16 08:14:38;;;;;;;2.50;2.30;;;21.10;74.30;;;;;;4191622;28;20064;-73
2022/05/16 08:16:40;;;;;;;6.93;3.65;;;21.00;74.80;;;;;;4188015;28;20093;-73
2022/05/16 08:18:42;;;;;;;15.60;9.40;;;21.00;75.00;;;;;;4187761;28;20061;-73
2022/05/16 08:20:46;;;;;;;8.68;5.93;;;21.00;75.50;;;;;;4185965;28;20057;-73
2022/05/16 08:22:48;;;;;;;3.90;3.47;;;20.90;75.50;;;;;;4186311;28;20065;-73
2022/05/16 08:24:49;;;;;;;4.80;4.00;;;21.00;75.60;;;;;;4169690;28;20054;-73
2022/05/16 08:26:51;;;;;;;4.93;3.60;;;21.20;76.00;;;;;;4187097;28;20160;-73
2022/05/16 08:28:53;;;;;;;3.45;3.17;;;21.30;75.00;;;;;;4186013;28;20840;-73
2022/05/16 08:30:54;;;;;;;5.25;3.25;;;21.40;75.10;;;;;;4194371;28;20099;-73
2022/05/16 08:32:58;;;;;;;2.88;2.58;;;21.50;74.50;;;;;;4185588;28;20057;-73
2022/05/16 08:35:04;;;;;;;5.18;2.60;;;21.50;74.60;;;;;;4185589;28;20571;-73
2022/05/16 08:41:57;;;;;;;4.05;2.63;;;22.10;73.20;;;;;;4184694;28;20089;-73
2022/05/16 08:44:18;;;;;;;6.45;2.60;;;22.40;73.90;;;;;;4185755;28;20061;-74
2022/05/16 08:46:34;;;;;;;2.97;2.42;;;22.60;73.00;;;;;;4183800;28;20057;-73
2022/05/16 08:48:48;;;;;;;3.55;2.78;;;22.70;70.80;;;;;;4188806;28;20171;-73
2022/05/16 08:50:52;;;;;;;2.78;2.58;;;22.80;70.00;;;;;;4167095;28;20062;-73
2022/05/16 08:53:02;;;;;;;3.97;2.38;;;22.90;69.70;;;;;;4191377;28;20061;-73
2022/05/16 08:55:38;;;;;;;8.75;3.38;;;23.10;69.60;;;;;;4186153;28;20060;-73
2022/05/16 08:57:46;;;;;;;4.20;2.75;;;23.40;69.20;;;;;;4189302;28;20057;-72
2022/05/16 09:00:00;;;;;;;3.38;3.08;;;23.50;66.30;;;;;;4190235;28;20857;-72
2022/05/16 09:02:21;;;;;;;3.22;2.55;;;23.40;65.80;;;;;;4187281;28;20061;-72
2022/05/16 09:04:38;;;;;;;5.53;2.97;;;23.30;67.00;;;;;;4188462;28;20884;-72
2022/05/16 09:07:02;;;;;;;3.70;2.90;;;23.40;65.70;;;;;;4189459;28;20065;-72
2022/05/16 09:09:11;;;;;;;5.28;2.58;;;23.40;65.80;;;;;;4188348;28;20057;-72
2022/05/16 09:11:19;;;;;;;4.43;4.03;;;23.50;65.00;;;;;;4192363;28;20057;-73
2022/05/16 09:13:33;;;;;;;7.70;2.97;;;23.60;65.60;;;;;;4191855;28;20057;-73
2022/05/16 09:15:40;;;;;;;5.07;3.00;;;23.80;65.50;;;;;;4192408;28;20092;-72
2022/05/16 09:18:04;;;;;;;5.53;3.00;;;23.80;64.90;;;;;;4192716;28;20108;-71
2022/05/16 09:20:32;;;;;;;5.03;3.20;;;23.60;63.80;;;;;;4170501;28;20054;-72
2022/05/16 09:23:00;;;;;;;5.00;2.90;;;23.50;63.20;;;;;;4189454;28;20057;-72
2022/05/16 09:25:13;;;;;;;7.15;3.03;;;23.50;64.50;;;;;;4189239;28;20159;-72
2022/05/16 09:29:53;;;;;;;5.95;3.05;;;23.80;63.90;;;;;;4190689;28;20091;-71
2022/05/16 09:32:04;;;;;;;5.80;2.47;;;23.80;61.30;;;;;;4192359;28;20061;-73
2022/05/16 09:34:07;;;;;;;2.50;2.08;;;23.90;60.40;;;;;;4193920;28;20060;-73
2022/05/16 09:36:12;;;;;;;4.70;2.58;;;24.30;59.70;;;;;;4189577;28;20057;-73
2022/05/16 09:38:14;;;;;;;3.35;3.00;;;24.40;59.60;;;;;;4186529;28;20061;-73
2022/05/16 09:40:16;;;;;;;4.95;3.38;;;24.50;59.90;;;;;;4188515;28;20148;-72
2022/05/16 09:42:28;;;;;;;4.22;2.88;;;24.50;60.30;;;;;;4192238;28;20135;-72
2022/05/16 09:44:56;;;;;;;9.95;3.20;;;24.40;60.50;;;;;;4185257;28;20063;-73
2022/05/16 09:47:18;;;;;;;9.75;3.03;;;24.20;59.90;;;;;;4187601;28;20083;-73
2022/05/16 09:49:24;;;;;;;9.57;3.30;;;24.10;61.70;;;;;;4190313;28;20068;-72
2022/05/16 09:51:26;;;;;;;3.78;2.67;;;23.80;60.10;;;;;;4188372;28;20110;-76
2022/05/16 09:53:33;;;;;;;3.53;2.83;;;23.70;61.70;;;;;;4183886;28;20053;-73
2022/05/16 09:55:53;;;;;;;4.28;2.45;;;23.90;61.90;;;;;;4184918;28;20095;-73
2022/05/16 09:58:14;;;;;;;5.15;2.58;;;24.00;60.40;;;;;;4181400;28;20942;-74
2022/05/16 10:00:41;;;;;;;6.60;2.90;;;23.90;60.10;;;;;;4187750;28;20057;-72
2022/05/16 10:02:52;;;;;;;4.22;2.30;;;23.70;61.00;;;;;;4190643;28;20061;-73
2022/05/16 10:05:21;;;;;;;7.50;2.88;;;23.90;61.00;;;;;;4191852;28;20097;-72
2022/05/16 10:07:29;;;;;;;4.05;2.50;;;23.90;60.50;;;;;;4182474;28;20067;-73
2022/05/16 10:09:46;;;;;;;3.08;2.88;;;24.00;61.40;;;;;;4194201;28;20057;-72
2022/05/16 10:11:50;;;;;;;3.13;2.92;;;24.10;60.50;;;;;;4192434;28;20056;-72
2022/05/16 10:13:52;;;;;;;3.90;2.63;;;24.40;59.30;;;;;;4193505;28;20057;-74
2022/05/16 10:15:57;;;;;;;7.68;2.67;;;24.50;59.90;;;;;;4196764;28;20057;-72
2022/05/16 10:18:02;;;;;;;4.85;2.53;;;24.80;60.20;;;;;;4196703;28;20150;-72
2022/05/16 10:20:09;;;;;;;4.50;2.72;;;24.70;58.40;;;;;;4195822;28;20156;-73
2022/05/16 10:22:15;;;;;;;4.55;2.72;;;24.60;59.60;;;;;;4197871;28;20095;-73
2022/05/16 10:24:20;;;;;;;3.63;2.90;;;24.50;60.00;;;;;;4197279;28;20103;-74
2022/05/16 10:26:30;;;;;;;4.57;2.80;;;24.50;59.60;;;;;;4197665;28;20064;-73
2022/05/16 10:28:38;;;;;;;2.90;2.70;;;24.20;60.50;;;;;;4198163;28;20184;-72
2022/05/16 10:35:30;;;;;;;3.25;2.45;;;23.90;60.40;;;;;;4198136;28;20135;-72
2022/05/16 10:37:35;;;;;;;4.30;2.70;;;23.90;60.50;;;;;;4194174;28;20064;-72
2022/05/16 10:39:42;;;;;;;4.57;2.83;;;23.90;60.50;;;;;;4193275;28;20095;-73
2022/05/16 10:41:50;;;;;;;2.30;1.75;;;24.00;60.30;;;;;;4192490;28;20062;-72
2022/05/16 10:44:11;;;;;;;5.78;1.90;;;24.00;60.00;;;;;;4191474;28;20057;-73
2022/05/16 10:46:19;;;;;;;3.92;1.88;;;24.10;60.30;;;;;;4189650;28;20811;-72
2022/05/16 10:48:44;;;;;;;2.85;1.73;;;24.10;59.40;;;;;;4189259;28;20155;-72
2022/05/16 10:50:57;;;;;;;4.38;1.80;;;24.20;59.90;;;;;;4187347;28;20064;-72
2022/05/16 10:53:13;;;;;;;3.40;1.70;;;24.10;59.60;;;;;;4189295;28;20171;-72
2022/05/16 10:55:16;;;;;;;8.25;1.88;;;24.10;59.10;;;;;;4195874;28;20099;-73
2022/05/16 10:57:32;;;;;;;3.33;1.90;;;24.10;60.20;;;;;;4191111;28;20063;-73
2022/05/16 10:59:52;;;;;;;3.78;1.92;;;23.90;60.10;;;;;;4188764;28;20266;-72
2022/05/16 11:02:06;;;;;;;4.50;2.00;;;23.80;61.10;;;;;;4186318;28;20064;-72
2022/05/16 11:04:29;;;;;;;3.08;1.60;;;23.70;61.70;;;;;;4177393;28;20064;-73
2022/05/16 11:06:48;;;;;;;4.03;2.25;;;23.70;61.70;;;;;;4183883;28;20187;-72
2022/05/16 11:09:06;;;;;;;2.88;1.95;;;23.60;62.70;;;;;;4170129;28;20062;-73
2022/05/16 11:11:30;;;;;;;5.07;2.53;;;23.10;62.90;;;;;;4182908;28;21018;-74
2022/05/16 11:13:36;;;;;;;3.95;1.88;;;22.80;64.90;;;;;;4184994;28;20206;-72
2022/05/16 11:15:53;;;;;;;5.07;2.13;;;22.70;65.10;;;;;;4193346;28;20123;-73
2022/05/16 11:18:06;;;;;;;3.42;1.90;;;22.60;66.20;;;;;;4184085;28;20603;-72
2022/05/16 11:20:22;;;;;;;4.45;2.42;;;22.50;66.50;;;;;;4185972;28;20865;-73